sensor_id;sensor_type;location;lat;lon;timestamp;P1;durP1;ratioP1;P2;durP2;ratioP2
75542;SDS011;64129;53.508;10.476;2023-04-15T00:02:21;7.25;;;4.63;;
75542;SDS011;64129;53.508;10.476;2023-04-15T00:04:47;6.75;;;4.53;;
75542;SDS011;64129;53.508;10.476;2023-04-15T00:07:14;7.85;;;4.53;;
75542;SDS011;64129;53.508;10.476;2023-04-15T00:09:41;7.50;;;4.70;;
75542;SDS011;64129;53.508;10.476;2023-04-15T00:12:08;6.97;;;4.45;;
75542;SDS011;64129;53.508;10.476;2023-04-15T00:14:34;6.18;;;4.28;;
75542;SDS011;64129;53.508;10.476;2023-04-15T00:17:02;8.05;;;4.63;;
75542;SDS011;64129;53.508;10.476;2023-04-15T00:19:30;8.77;;;4.75;;
75542;SDS011;64129;53.508;10.476;2023-04-15T00:21:58;6.45;;;4.38;;
75542;SDS011;64129;53.508;10.476;2023-04-15T00:24:25;7.85;;;4.75;;
75542;SDS011;64129;53.508;10.476;2023-04-15T00:26:51;6.55;;;4.53;;
75542;SDS011;64129;53.508;10.476;2023-04-15T00:29:18;9.00;;;4.40;;
75542;SDS011;64129;53.508;10.476;2023-04-15T00:31:45;9.15;;;5.13;;
75542;SDS011;64129;53.508;10.476;2023-04-15T00:34:11;7.20;;;4.85;;
75542;SDS011;64129;53.508;10.476;2023-04-15T00:36:41;6.15;;;4.53;;
75542;SDS011;64129;53.508;10.476;2023-04-15T00:39:08;7.28;;;4.97;;
75542;SDS011;64129;53.508;10.476;2023-04-15T00:41:34;7.25;;;5.03;;
75542;SDS011;64129;53.508;10.476;2023-04-15T00:44:07;7.20;;;5.13;;
75542;SDS011;64129;53.508;10.476;2023-04-15T00:46:34;7.28;;;4.70;;
75542;SDS011;64129;53.508;10.476;2023-04-15T00:49:03;7.82;;;4.97;;
75542;SDS011;64129;53.508;10.476;2023-04-15T00:51:32;8.77;;;6.00;;
75542;SDS011;64129;53.508;10.476;2023-04-15T00:54:10;8.57;;;5.57;;
75542;SDS011;64129;53.508;10.476;2023-04-15T00:56:37;9.65;;;5.75;;
75542;SDS011;64129;53.508;10.476;2023-04-15T00:59:05;7.95;;;5.00;;
75542;SDS011;64129;53.508;10.476;2023-04-15T01:01:32;7.80;;;5.32;;
75542;SDS011;64129;53.508;10.476;2023-04-15T01:04:00;9.18;;;5.53;;
75542;SDS011;64129;53.508;10.476;2023-04-15T01:06:28;8.07;;;5.63;;
75542;SDS011;64129;53.508;10.476;2023-04-15T01:08:56;10.43;;;6.22;;
75542;SDS011;64129;53.508;10.476;2023-04-15T01:11:23;9.95;;;6.53;;
75542;SDS011;64129;53.508;10.476;2023-04-15T01:13:50;9.77;;;6.35;;
75542;SDS011;64129;53.508;10.476;2023-04-15T01:16:18;9.45;;;6.13;;
75542;SDS011;64129;53.508;10.476;2023-04-15T01:18:45;11.35;;;6.55;;
75542;SDS011;64129;53.508;10.476;2023-04-15T01:21:12;10.25;;;5.65;;
75542;SDS011;64129;53.508;10.476;2023-04-15T01:23:39;10.05;;;6.32;;
75542;SDS011;64129;53.508;10.476;2023-04-15T01:26:06;11.07;;;6.63;;
75542;SDS011;64129;53.508;10.476;2023-04-15T01:28:36;9.40;;;6.78;;
75542;SDS011;64129;53.508;10.476;2023-04-15T01:31:04;11.00;;;6.32;;
75542;SDS011;64129;53.508;10.476;2023-04-15T01:33:35;12.27;;;6.78;;
75542;SDS011;64129;53.508;10.476;2023-04-15T01:36:02;14.23;;;7.35;;
75542;SDS011;64129;53.508;10.476;2023-04-15T01:38:29;11.73;;;7.15;;
75542;SDS011;64129;53.508;10.476;2023-04-15T01:40:56;16.00;;;8.38;;
75542;SDS011;64129;53.508;10.476;2023-04-15T01:43:24;14.23;;;8.13;;
75542;SDS011;64129;53.508;10.476;2023-04-15T01:45:51;20.23;;;8.70;;
75542;SDS011;64129;53.508;10.476;2023-04-15T01:48:18;15.82;;;7.90;;
75542;SDS011;64129;53.508;10.476;2023-04-15T01:50:44;19.42;;;9.27;;
75542;SDS011;64129;53.508;10.476;2023-04-15T01:53:13;16.73;;;8.65;;
75542;SDS011;64129;53.508;10.476;2023-04-15T01:55:39;18.63;;;8.85;;
75542;SDS011;64129;53.508;10.476;2023-04-15T01:58:06;19.38;;;8.80;;
75542;SDS011;64129;53.508;10.476;2023-04-15T02:00:33;15.82;;;8.25;;
75542;SDS011;64129;53.508;10.476;2023-04-15T02:02:59;18.98;;;9.55;;
75542;SDS011;64129;53.508;10.476;2023-04-15T02:05:26;24.45;;;10.18;;
75542;SDS011;64129;53.508;10.476;2023-04-15T02:07:52;22.33;;;10.40;;
75542;SDS011;64129;53.508;10.476;2023-04-15T02:10:19;20.40;;;9.70;;
75542;SDS011;64129;53.508;10.476;2023-04-15T02:12:46;20.17;;;9.23;;
75542;SDS011;64129;53.508;10.476;2023-04-15T02:15:12;27.90;;;9.93;;
75542;SDS011;64129;53.508;10.476;2023-04-15T02:17:40;28.80;;;10.75;;
75542;SDS011;64129;53.508;10.476;2023-04-15T02:20:12;23.08;;;10.02;;
75542;SDS011;64129;53.508;10.476;2023-04-15T02:22:40;19.40;;;9.85;;
75542;SDS011;64129;53.508;10.476;2023-04-15T02:25:07;26.60;;;10.48;;
75542;SDS011;64129;53.508;10.476;2023-04-15T02:27:34;25.23;;;10.57;;
75542;SDS011;64129;53.508;10.476;2023-04-15T02:30:01;26.35;;;11.57;;
75542;SDS011;64129;53.508;10.476;2023-04-15T02:32:28;22.27;;;9.95;;
75542;SDS011;64129;53.508;10.476;2023-04-15T02:34:55;20.40;;;9.90;;
75542;SDS011;64129;53.508;10.476;2023-04-15T02:37:21;29.70;;;12.38;;
75542;SDS011;64129;53.508;10.476;2023-04-15T02:39:48;33.92;;;11.88;;
75542;SDS011;64129;53.508;10.476;2023-04-15T02:42:15;22.50;;;10.02;;
75542;SDS011;64129;53.508;10.476;2023-04-15T02:44:41;24.23;;;10.57;;
75542;SDS011;64129;53.508;10.476;2023-04-15T02:47:09;34.33;;;11.68;;
75542;SDS011;64129;53.508;10.476;2023-04-15T02:49:37;32.63;;;11.60;;
75542;SDS011;64129;53.508;10.476;2023-04-15T02:52:03;25.02;;;10.75;;
75542;SDS011;64129;53.508;10.476;2023-04-15T02:54:31;32.08;;;11.45;;
75542;SDS011;64129;53.508;10.476;2023-04-15T02:56:59;32.65;;;12.93;;
75542;SDS011;64129;53.508;10.476;2023-04-15T02:59:26;37.05;;;12.68;;
75542;SDS011;64129;53.508;10.476;2023-04-15T03:01:53;49.38;;;13.63;;
75542;SDS011;64129;53.508;10.476;2023-04-15T03:06:48;35.92;;;11.55;;
75542;SDS011;64129;53.508;10.476;2023-04-15T03:09:15;33.72;;;11.13;;
75542;SDS011;64129;53.508;10.476;2023-04-15T03:11:42;23.95;;;11.63;;
75542;SDS011;64129;53.508;10.476;2023-04-15T03:14:08;38.42;;;12.70;;
75542;SDS011;64129;53.508;10.476;2023-04-15T03:16:39;30.88;;;12.75;;
75542;SDS011;64129;53.508;10.476;2023-04-15T03:19:05;37.95;;;12.57;;
75542;SDS011;64129;53.508;10.476;2023-04-15T03:21:33;36.17;;;12.98;;
75542;SDS011;64129;53.508;10.476;2023-04-15T03:23:59;48.75;;;14.45;;
75542;SDS011;64129;53.508;10.476;2023-04-15T03:26:27;52.50;;;14.38;;
75542;SDS011;64129;53.508;10.476;2023-04-15T03:28:58;34.80;;;13.15;;
75542;SDS011;64129;53.508;10.476;2023-04-15T03:31:24;45.38;;;14.98;;
75542;SDS011;64129;53.508;10.476;2023-04-15T03:33:51;39.15;;;13.18;;
75542;SDS011;64129;53.508;10.476;2023-04-15T03:36:18;40.38;;;13.85;;
75542;SDS011;64129;53.508;10.476;2023-04-15T03:38:44;28.30;;;13.00;;
75542;SDS011;64129;53.508;10.476;2023-04-15T03:41:11;28.55;;;12.88;;
75542;SDS011;64129;53.508;10.476;2023-04-15T03:43:38;59.65;;;16.13;;
75542;SDS011;64129;53.508;10.476;2023-04-15T03:46:04;42.30;;;15.05;;
75542;SDS011;64129;53.508;10.476;2023-04-15T03:48:31;42.45;;;15.80;;
75542;SDS011;64129;53.508;10.476;2023-04-15T03:50:57;31.33;;;13.95;;
75542;SDS011;64129;53.508;10.476;2023-04-15T03:53:24;36.47;;;14.38;;
75542;SDS011;64129;53.508;10.476;2023-04-15T03:55:50;45.25;;;15.82;;
75542;SDS011;64129;53.508;10.476;2023-04-15T03:58:17;37.03;;;14.05;;
75542;SDS011;64129;53.508;10.476;2023-04-15T04:00:44;39.75;;;15.65;;
75542;SDS011;64129;53.508;10.476;2023-04-15T04:03:10;47.33;;;16.27;;
75542;SDS011;64129;53.508;10.476;2023-04-15T04:05:37;40.42;;;15.13;;
75542;SDS011;64129;53.508;10.476;2023-04-15T04:08:04;38.72;;;14.02;;
75542;SDS011;64129;53.508;10.476;2023-04-15T04:10:31;33.72;;;14.13;;
75542;SDS011;64129;53.508;10.476;2023-04-15T04:12:57;34.88;;;14.50;;
75542;SDS011;64129;53.508;10.476;2023-04-15T04:15:24;46.22;;;14.80;;
75542;SDS011;64129;53.508;10.476;2023-04-15T04:17:50;45.28;;;15.35;;
75542;SDS011;64129;53.508;10.476;2023-04-15T04:20:17;35.10;;;14.23;;
75542;SDS011;64129;53.508;10.476;2023-04-15T04:22:43;33.80;;;14.23;;
75542;SDS011;64129;53.508;10.476;2023-04-15T04:25:10;34.72;;;13.07;;
75542;SDS011;64129;53.508;10.476;2023-04-15T04:27:37;34.92;;;14.57;;
75542;SDS011;64129;53.508;10.476;2023-04-15T04:30:04;30.58;;;12.15;;
75542;SDS011;64129;53.508;10.476;2023-04-15T04:34:58;43.22;;;13.13;;
75542;SDS011;64129;53.508;10.476;2023-04-15T04:37:24;42.67;;;13.70;;
75542;SDS011;64129;53.508;10.476;2023-04-15T04:39:51;42.15;;;14.10;;
75542;SDS011;64129;53.508;10.476;2023-04-15T04:42:18;32.47;;;13.45;;
75542;SDS011;64129;53.508;10.476;2023-04-15T04:44:44;38.25;;;14.45;;
75542;SDS011;64129;53.508;10.476;2023-04-15T04:47:11;46.38;;;15.82;;
75542;SDS011;64129;53.508;10.476;2023-04-15T04:49:38;44.17;;;15.23;;
75542;SDS011;64129;53.508;10.476;2023-04-15T04:52:04;57.45;;;16.40;;
75542;SDS011;64129;53.508;10.476;2023-04-15T04:54:31;37.35;;;14.95;;
75542;SDS011;64129;53.508;10.476;2023-04-15T04:56:58;43.85;;;14.00;;
75542;SDS011;64129;53.508;10.476;2023-04-15T04:59:25;69.88;;;18.10;;
75542;SDS011;64129;53.508;10.476;2023-04-15T05:01:51;48.70;;;17.25;;
75542;SDS011;64129;53.508;10.476;2023-04-15T05:04:18;60.15;;;17.48;;
75542;SDS011;64129;53.508;10.476;2023-04-15T05:06:44;47.40;;;16.15;;
75542;SDS011;64129;53.508;10.476;2023-04-15T05:09:11;56.30;;;17.13;;
75542;SDS011;64129;53.508;10.476;2023-04-15T05:11:37;58.88;;;17.83;;
75542;SDS011;64129;53.508;10.476;2023-04-15T05:14:04;46.10;;;16.02;;
75542;SDS011;64129;53.508;10.476;2023-04-15T05:16:30;74.20;;;19.65;;
75542;SDS011;64129;53.508;10.476;2023-04-15T05:18:56;44.00;;;16.13;;
75542;SDS011;64129;53.508;10.476;2023-04-15T05:21:23;37.53;;;16.42;;
75542;SDS011;64129;53.508;10.476;2023-04-15T05:23:49;44.90;;;17.33;;
75542;SDS011;64129;53.508;10.476;2023-04-15T05:26:16;38.25;;;15.00;;
75542;SDS011;64129;53.508;10.476;2023-04-15T05:28:43;50.80;;;17.02;;
75542;SDS011;64129;53.508;10.476;2023-04-15T05:31:09;41.38;;;16.45;;
75542;SDS011;64129;53.508;10.476;2023-04-15T05:33:36;42.08;;;17.90;;
75542;SDS011;64129;53.508;10.476;2023-04-15T05:36:02;40.88;;;18.00;;
75542;SDS011;64129;53.508;10.476;2023-04-15T05:38:29;53.45;;;20.60;;
75542;SDS011;64129;53.508;10.476;2023-04-15T05:40:55;39.30;;;18.10;;
75542;SDS011;64129;53.508;10.476;2023-04-15T05:43:22;44.80;;;18.75;;
75542;SDS011;64129;53.508;10.476;2023-04-15T05:45:49;43.63;;;20.50;;
75542;SDS011;64129;53.508;10.476;2023-04-15T05:48:15;38.15;;;17.45;;
75542;SDS011;64129;53.508;10.476;2023-04-15T05:50:42;39.80;;;18.13;;
75542;SDS011;64129;53.508;10.476;2023-04-15T05:53:08;39.33;;;19.60;;
75542;SDS011;64129;53.508;10.476;2023-04-15T05:55:35;45.60;;;20.75;;
75542;SDS011;64129;53.508;10.476;2023-04-15T05:58:02;50.00;;;22.63;;
75542;SDS011;64129;53.508;10.476;2023-04-15T06:00:28;42.53;;;19.70;;
75542;SDS011;64129;53.508;10.476;2023-04-15T06:02:56;41.30;;;20.25;;
75542;SDS011;64129;53.508;10.476;2023-04-15T06:05:24;47.47;;;21.65;;
75542;SDS011;64129;53.508;10.476;2023-04-15T06:07:50;46.22;;;21.80;;
75542;SDS011;64129;53.508;10.476;2023-04-15T06:10:17;50.20;;;23.15;;
75542;SDS011;64129;53.508;10.476;2023-04-15T06:12:43;43.58;;;21.45;;
75542;SDS011;64129;53.508;10.476;2023-04-15T06:15:11;48.45;;;22.73;;
75542;SDS011;64129;53.508;10.476;2023-04-15T06:17:37;45.67;;;22.70;;
75542;SDS011;64129;53.508;10.476;2023-04-15T06:20:04;45.72;;;22.40;;
75542;SDS011;64129;53.508;10.476;2023-04-15T06:22:30;43.45;;;21.20;;
75542;SDS011;64129;53.508;10.476;2023-04-15T06:24:57;41.63;;;22.17;;
75542;SDS011;64129;53.508;10.476;2023-04-15T06:27:23;48.53;;;23.48;;
75542;SDS011;64129;53.508;10.476;2023-04-15T06:29:50;44.13;;;22.30;;
75542;SDS011;64129;53.508;10.476;2023-04-15T06:32:16;48.83;;;21.20;;
75542;SDS011;64129;53.508;10.476;2023-04-15T06:34:43;57.30;;;24.38;;
75542;SDS011;64129;53.508;10.476;2023-04-15T06:37:09;53.50;;;24.58;;
75542;SDS011;64129;53.508;10.476;2023-04-15T06:39:41;44.20;;;21.98;;
75542;SDS011;64129;53.508;10.476;2023-04-15T06:42:08;51.40;;;24.30;;
75542;SDS011;64129;53.508;10.476;2023-04-15T06:44:36;47.38;;;22.88;;
75542;SDS011;64129;53.508;10.476;2023-04-15T06:47:03;50.10;;;24.67;;
75542;SDS011;64129;53.508;10.476;2023-04-15T06:49:29;47.97;;;24.33;;
75542;SDS011;64129;53.508;10.476;2023-04-15T06:51:56;47.70;;;23.42;;
75542;SDS011;64129;53.508;10.476;2023-04-15T06:54:22;47.60;;;23.63;;
75542;SDS011;64129;53.508;10.476;2023-04-15T06:56:49;48.13;;;24.00;;
75542;SDS011;64129;53.508;10.476;2023-04-15T06:59:16;58.28;;;26.08;;
75542;SDS011;64129;53.508;10.476;2023-04-15T07:01:43;50.35;;;24.67;;
75542;SDS011;64129;53.508;10.476;2023-04-15T07:04:09;49.95;;;23.58;;
75542;SDS011;64129;53.508;10.476;2023-04-15T07:06:36;52.13;;;26.08;;
75542;SDS011;64129;53.508;10.476;2023-04-15T07:09:03;58.47;;;25.98;;
75542;SDS011;64129;53.508;10.476;2023-04-15T07:11:30;49.08;;;23.63;;
75542;SDS011;64129;53.508;10.476;2023-04-15T07:13:57;54.97;;;25.05;;
75542;SDS011;64129;53.508;10.476;2023-04-15T07:16:23;49.80;;;24.17;;
75542;SDS011;64129;53.508;10.476;2023-04-15T07:18:50;53.13;;;24.77;;
75542;SDS011;64129;53.508;10.476;2023-04-15T07:21:16;53.63;;;25.23;;
75542;SDS011;64129;53.508;10.476;2023-04-15T07:23:43;55.70;;;24.88;;
75542;SDS011;64129;53.508;10.476;2023-04-15T07:26:10;55.10;;;26.83;;
75542;SDS011;64129;53.508;10.476;2023-04-15T07:28:36;51.72;;;25.33;;
75542;SDS011;64129;53.508;10.476;2023-04-15T07:31:03;52.38;;;25.50;;
75542;SDS011;64129;53.508;10.476;2023-04-15T07:33:29;56.15;;;24.55;;
75542;SDS011;64129;53.508;10.476;2023-04-15T07:35:56;49.10;;;23.30;;
75542;SDS011;64129;53.508;10.476;2023-04-15T07:38:22;42.92;;;18.08;;
75542;SDS011;64129;53.508;10.476;2023-04-15T07:40:49;50.17;;;22.45;;
75542;SDS011;64129;53.508;10.476;2023-04-15T07:43:15;51.08;;;23.75;;
75542;SDS011;64129;53.508;10.476;2023-04-15T07:45:42;51.50;;;23.83;;
75542;SDS011;64129;53.508;10.476;2023-04-15T07:48:08;48.40;;;22.90;;
75542;SDS011;64129;53.508;10.476;2023-04-15T07:50:35;44.13;;;22.10;;
75542;SDS011;64129;53.508;10.476;2023-04-15T07:53:01;51.80;;;22.55;;
75542;SDS011;64129;53.508;10.476;2023-04-15T07:55:28;49.70;;;23.30;;
75542;SDS011;64129;53.508;10.476;2023-04-15T07:57:55;47.13;;;22.38;;
75542;SDS011;64129;53.508;10.476;2023-04-15T08:00:22;46.28;;;22.52;;
75542;SDS011;64129;53.508;10.476;2023-04-15T08:02:48;42.38;;;21.00;;
75542;SDS011;64129;53.508;10.476;2023-04-15T08:05:15;45.42;;;21.65;;
75542;SDS011;64129;53.508;10.476;2023-04-15T08:07:42;45.05;;;22.25;;
75542;SDS011;64129;53.508;10.476;2023-04-15T08:10:08;48.20;;;23.92;;
75542;SDS011;64129;53.508;10.476;2023-04-15T08:12:35;47.92;;;22.83;;
75542;SDS011;64129;53.508;10.476;2023-04-15T08:15:02;48.28;;;23.00;;
75542;SDS011;64129;53.508;10.476;2023-04-15T08:17:29;44.83;;;22.55;;
75542;SDS011;64129;53.508;10.476;2023-04-15T08:19:56;48.42;;;21.50;;
75542;SDS011;64129;53.508;10.476;2023-04-15T08:22:22;47.30;;;23.65;;
75542;SDS011;64129;53.508;10.476;2023-04-15T08:24:49;48.47;;;24.15;;
75542;SDS011;64129;53.508;10.476;2023-04-15T08:27:16;47.25;;;22.92;;
75542;SDS011;64129;53.508;10.476;2023-04-15T08:29:43;53.00;;;23.50;;
75542;SDS011;64129;53.508;10.476;2023-04-15T08:32:10;45.63;;;23.15;;
75542;SDS011;64129;53.508;10.476;2023-04-15T08:34:37;59.15;;;25.77;;
75542;SDS011;64129;53.508;10.476;2023-04-15T08:37:03;52.92;;;23.38;;
75542;SDS011;64129;53.508;10.476;2023-04-15T08:39:30;49.25;;;23.38;;
75542;SDS011;64129;53.508;10.476;2023-04-15T08:42:00;50.97;;;23.30;;
75542;SDS011;64129;53.508;10.476;2023-04-15T08:44:29;46.30;;;22.77;;
75542;SDS011;64129;53.508;10.476;2023-04-15T08:46:59;47.40;;;23.77;;
75542;SDS011;64129;53.508;10.476;2023-04-15T08:49:27;46.28;;;23.55;;
75542;SDS011;64129;53.508;10.476;2023-04-15T08:51:54;45.63;;;22.25;;
75542;SDS011;64129;53.508;10.476;2023-04-15T08:54:24;45.15;;;23.83;;
75542;SDS011;64129;53.508;10.476;2023-04-15T08:56:52;47.60;;;23.15;;
75542;SDS011;64129;53.508;10.476;2023-04-15T08:59:20;47.75;;;22.35;;
75542;SDS011;64129;53.508;10.476;2023-04-15T09:01:48;42.72;;;21.15;;
75542;SDS011;64129;53.508;10.476;2023-04-15T09:04:16;45.08;;;21.95;;
75542;SDS011;64129;53.508;10.476;2023-04-15T09:06:43;50.85;;;23.33;;
75542;SDS011;64129;53.508;10.476;2023-04-15T09:09:10;51.78;;;25.85;;
75542;SDS011;64129;53.508;10.476;2023-04-15T09:11:38;42.97;;;23.00;;
75542;SDS011;64129;53.508;10.476;2023-04-15T09:14:04;39.17;;;21.02;;
75542;SDS011;64129;53.508;10.476;2023-04-15T09:16:31;40.90;;;20.65;;
75542;SDS011;64129;53.508;10.476;2023-04-15T09:19:21;38.42;;;19.35;;
75542;SDS011;64129;53.508;10.476;2023-04-15T09:21:49;40.38;;;20.83;;
75542;SDS011;64129;53.508;10.476;2023-04-15T09:24:18;41.22;;;21.52;;
75542;SDS011;64129;53.508;10.476;2023-04-15T09:26:45;40.38;;;20.85;;
75542;SDS011;64129;53.508;10.476;2023-04-15T09:29:12;37.47;;;19.90;;
75542;SDS011;64129;53.508;10.476;2023-04-15T09:31:39;39.47;;;19.80;;
75542;SDS011;64129;53.508;10.476;2023-04-15T09:34:07;34.38;;;19.33;;
75542;SDS011;64129;53.508;10.476;2023-04-15T09:36:39;34.45;;;19.60;;
75542;SDS011;64129;53.508;10.476;2023-04-15T09:39:17;33.20;;;19.35;;
75542;SDS011;64129;53.508;10.476;2023-04-15T09:41:44;36.60;;;19.23;;
75542;SDS011;64129;53.508;10.476;2023-04-15T09:44:26;33.58;;;19.13;;
75542;SDS011;64129;53.508;10.476;2023-04-15T09:46:52;37.85;;;20.42;;
75542;SDS011;64129;53.508;10.476;2023-04-15T09:49:19;33.33;;;19.20;;
75542;SDS011;64129;53.508;10.476;2023-04-15T09:51:46;37.20;;;19.13;;
75542;SDS011;64129;53.508;10.476;2023-04-15T09:54:20;32.78;;;18.88;;
75542;SDS011;64129;53.508;10.476;2023-04-15T09:56:46;30.73;;;19.08;;
75542;SDS011;64129;53.508;10.476;2023-04-15T09:59:13;32.60;;;18.15;;
75542;SDS011;64129;53.508;10.476;2023-04-15T10:01:40;30.48;;;17.88;;
75542;SDS011;64129;53.508;10.476;2023-04-15T10:04:07;32.53;;;18.67;;
75542;SDS011;64129;53.508;10.476;2023-04-15T10:06:35;29.77;;;18.38;;
75542;SDS011;64129;53.508;10.476;2023-04-15T10:09:02;27.05;;;17.35;;
75542;SDS011;64129;53.508;10.476;2023-04-15T10:11:29;27.67;;;16.33;;
75542;SDS011;64129;53.508;10.476;2023-04-15T10:13:58;28.90;;;16.67;;
75542;SDS011;64129;53.508;10.476;2023-04-15T10:16:26;29.60;;;17.00;;
75542;SDS011;64129;53.508;10.476;2023-04-15T10:18:56;31.55;;;17.02;;
75542;SDS011;64129;53.508;10.476;2023-04-15T10:21:26;31.70;;;17.58;;
75542;SDS011;64129;53.508;10.476;2023-04-15T10:23:53;29.17;;;17.98;;
75542;SDS011;64129;53.508;10.476;2023-04-15T10:26:20;30.52;;;17.27;;
75542;SDS011;64129;53.508;10.476;2023-04-15T10:28:47;28.00;;;18.00;;
75542;SDS011;64129;53.508;10.476;2023-04-15T10:31:14;27.80;;;17.35;;
75542;SDS011;64129;53.508;10.476;2023-04-15T10:33:41;31.58;;;16.23;;
75542;SDS011;64129;53.508;10.476;2023-04-15T10:36:08;25.98;;;16.92;;
75542;SDS011;64129;53.508;10.476;2023-04-15T10:38:37;25.58;;;16.40;;
75542;SDS011;64129;53.508;10.476;2023-04-15T10:41:19;24.30;;;16.40;;
75542;SDS011;64129;53.508;10.476;2023-04-15T10:43:54;26.45;;;16.08;;
75542;SDS011;64129;53.508;10.476;2023-04-15T10:46:41;25.13;;;15.30;;
75542;SDS011;64129;53.508;10.476;2023-04-15T10:49:11;22.67;;;15.32;;
75542;SDS011;64129;53.508;10.476;2023-04-15T10:51:38;24.33;;;16.15;;
75542;SDS011;64129;53.508;10.476;2023-04-15T10:54:51;22.95;;;15.18;;
75542;SDS011;64129;53.508;10.476;2023-04-15T11:12:39;21.30;;;15.43;;
75542;SDS011;64129;53.508;10.476;2023-04-15T11:17:59;19.10;;;13.95;;
75542;SDS011;64129;53.508;10.476;2023-04-15T11:20:35;21.38;;;14.73;;
75542;SDS011;64129;53.508;10.476;2023-04-15T11:25:30;19.75;;;14.75;;
75542;SDS011;64129;53.508;10.476;2023-04-15T11:27:59;22.85;;;16.30;;
75542;SDS011;64129;53.508;10.476;2023-04-15T11:30:28;19.52;;;13.35;;
75542;SDS011;64129;53.508;10.476;2023-04-15T11:32:58;20.55;;;14.80;;
75542;SDS011;64129;53.508;10.476;2023-04-15T11:35:26;21.63;;;14.90;;
75542;SDS011;64129;53.508;10.476;2023-04-15T11:37:53;19.38;;;14.27;;
75542;SDS011;64129;53.508;10.476;2023-04-15T11:40:21;22.23;;;14.15;;
75542;SDS011;64129;53.508;10.476;2023-04-15T11:45:58;21.35;;;14.82;;
75542;SDS011;64129;53.508;10.476;2023-04-15T11:48:27;21.13;;;13.48;;
75542;SDS011;64129;53.508;10.476;2023-04-15T11:50:55;18.00;;;13.07;;
75542;SDS011;64129;53.508;10.476;2023-04-15T11:53:23;15.55;;;12.57;;
75542;SDS011;64129;53.508;10.476;2023-04-15T11:56:00;15.80;;;12.23;;
75542;SDS011;64129;53.508;10.476;2023-04-15T11:58:28;15.20;;;12.50;;
75542;SDS011;64129;53.508;10.476;2023-04-15T12:00:58;14.95;;;12.18;;
75542;SDS011;64129;53.508;10.476;2023-04-15T12:03:30;13.85;;;11.38;;
75542;SDS011;64129;53.508;10.476;2023-04-15T12:16:44;15.07;;;13.15;;
75542;SDS011;64129;53.508;10.476;2023-04-15T12:19:13;17.15;;;12.35;;
75542;SDS011;64129;53.508;10.476;2023-04-15T12:21:43;16.02;;;13.00;;
75542;SDS011;64129;53.508;10.476;2023-04-15T12:24:11;17.75;;;13.05;;
75542;SDS011;64129;53.508;10.476;2023-04-15T12:26:46;17.92;;;13.05;;
75542;SDS011;64129;53.508;10.476;2023-04-15T12:29:15;15.50;;;12.32;;
75542;SDS011;64129;53.508;10.476;2023-04-15T12:34:17;15.60;;;12.13;;
75542;SDS011;64129;53.508;10.476;2023-04-15T12:36:58;14.70;;;11.43;;
75542;SDS011;64129;53.508;10.476;2023-04-15T12:39:27;17.73;;;13.20;;
75542;SDS011;64129;53.508;10.476;2023-04-15T12:41:56;18.70;;;12.95;;
75542;SDS011;64129;53.508;10.476;2023-04-15T12:44:23;15.35;;;13.27;;
75542;SDS011;64129;53.508;10.476;2023-04-15T12:46:50;16.92;;;12.98;;
75542;SDS011;64129;53.508;10.476;2023-04-15T12:49:21;16.20;;;12.15;;
75542;SDS011;64129;53.508;10.476;2023-04-15T12:51:49;18.33;;;12.30;;
75542;SDS011;64129;53.508;10.476;2023-04-15T12:54:16;17.83;;;12.98;;
75542;SDS011;64129;53.508;10.476;2023-04-15T12:56:44;15.15;;;11.73;;
75542;SDS011;64129;53.508;10.476;2023-04-15T12:59:12;14.70;;;11.82;;
75542;SDS011;64129;53.508;10.476;2023-04-15T13:01:39;14.60;;;12.10;;
75542;SDS011;64129;53.508;10.476;2023-04-15T13:04:06;13.55;;;12.07;;
75542;SDS011;64129;53.508;10.476;2023-04-15T13:06:33;15.20;;;12.07;;
75542;SDS011;64129;53.508;10.476;2023-04-15T13:08:59;15.23;;;11.98;;
75542;SDS011;64129;53.508;10.476;2023-04-15T13:11:27;13.93;;;11.23;;
75542;SDS011;64129;53.508;10.476;2023-04-15T13:13:56;15.13;;;11.73;;
75542;SDS011;64129;53.508;10.476;2023-04-15T13:16:23;18.15;;;12.15;;
75542;SDS011;64129;53.508;10.476;2023-04-15T13:18:49;14.35;;;11.10;;
75542;SDS011;64129;53.508;10.476;2023-04-15T13:21:16;14.70;;;12.55;;
75542;SDS011;64129;53.508;10.476;2023-04-15T13:23:43;14.27;;;11.88;;
75542;SDS011;64129;53.508;10.476;2023-04-15T13:26:10;13.10;;;11.55;;
75542;SDS011;64129;53.508;10.476;2023-04-15T13:28:36;15.15;;;11.80;;
75542;SDS011;64129;53.508;10.476;2023-04-15T13:31:03;14.63;;;12.68;;
75542;SDS011;64129;53.508;10.476;2023-04-15T13:33:30;14.68;;;11.68;;
75542;SDS011;64129;53.508;10.476;2023-04-15T13:35:57;13.55;;;11.30;;
75542;SDS011;64129;53.508;10.476;2023-04-15T13:38:24;13.77;;;11.45;;
75542;SDS011;64129;53.508;10.476;2023-04-15T13:40:51;13.95;;;11.50;;
75542;SDS011;64129;53.508;10.476;2023-04-15T13:43:17;11.65;;;9.13;;
75542;SDS011;64129;53.508;10.476;2023-04-15T13:45:45;12.73;;;9.55;;
75542;SDS011;64129;53.508;10.476;2023-04-15T13:48:11;13.95;;;10.48;;
75542;SDS011;64129;53.508;10.476;2023-04-15T13:50:38;15.70;;;11.70;;
75542;SDS011;64129;53.508;10.476;2023-04-15T13:53:05;15.88;;;11.40;;
75542;SDS011;64129;53.508;10.476;2023-04-15T13:55:32;14.50;;;11.82;;
75542;SDS011;64129;53.508;10.476;2023-04-15T13:58:00;14.93;;;11.20;;
75542;SDS011;64129;53.508;10.476;2023-04-15T14:00:26;13.93;;;11.90;;
75542;SDS011;64129;53.508;10.476;2023-04-15T14:02:53;14.25;;;11.57;;
75542;SDS011;64129;53.508;10.476;2023-04-15T14:05:19;14.50;;;11.73;;
75542;SDS011;64129;53.508;10.476;2023-04-15T14:07:46;14.55;;;11.77;;
75542;SDS011;64129;53.508;10.476;2023-04-15T14:10:12;16.60;;;11.80;;
75542;SDS011;64129;53.508;10.476;2023-04-15T14:12:39;18.13;;;12.40;;
75542;SDS011;64129;53.508;10.476;2023-04-15T14:15:06;16.17;;;12.40;;
75542;SDS011;64129;53.508;10.476;2023-04-15T14:17:34;15.65;;;12.18;;
75542;SDS011;64129;53.508;10.476;2023-04-15T14:20:01;16.48;;;12.00;;
75542;SDS011;64129;53.508;10.476;2023-04-15T14:22:27;15.98;;;12.48;;
75542;SDS011;64129;53.508;10.476;2023-04-15T14:24:54;19.20;;;12.38;;
75542;SDS011;64129;53.508;10.476;2023-04-15T14:27:20;18.63;;;12.73;;
75542;SDS011;64129;53.508;10.476;2023-04-15T14:29:47;17.10;;;12.57;;
75542;SDS011;64129;53.508;10.476;2023-04-15T14:32:14;14.27;;;12.75;;
75542;SDS011;64129;53.508;10.476;2023-04-15T14:34:41;15.02;;;11.80;;
75542;SDS011;64129;53.508;10.476;2023-04-15T14:37:07;14.88;;;11.57;;
75542;SDS011;64129;53.508;10.476;2023-04-15T14:39:34;15.55;;;12.07;;
75542;SDS011;64129;53.508;10.476;2023-04-15T14:42:00;15.18;;;12.70;;
75542;SDS011;64129;53.508;10.476;2023-04-15T14:44:27;14.45;;;11.73;;
75542;SDS011;64129;53.508;10.476;2023-04-15T14:46:54;16.05;;;11.88;;
75542;SDS011;64129;53.508;10.476;2023-04-15T14:49:21;14.60;;;11.00;;
75542;SDS011;64129;53.508;10.476;2023-04-15T14:51:48;14.05;;;12.25;;
75542;SDS011;64129;53.508;10.476;2023-04-15T14:54:14;15.65;;;11.95;;
75542;SDS011;64129;53.508;10.476;2023-04-15T14:56:41;16.17;;;11.43;;